Time;durP1;ratioP1;P1;durP2;ratioP2;P2;SDS_P1;SDS_P2;PMS_P1;PMS_P2;Temp;Humidity;BMP_temperature;BMP_pressure;BME280_temperature;BME280_humidity;BME280_pressure;Samples;Min_cycle;Max_cycle;Signal;HPM_P1;HPM_P2
2022/04/22 06:23:29;;;;;;;;;36.50;33.00;;;;;14.92;92.85;99866.53;6283650;22;46354;-94
2022/04/22 06:25:54;;;;;;;;;29.00;29.00;;;;;15.01;92.54;99868.41;6336808;22;45352;-90
2022/04/22 06:28:20;;;;;;;;;34.25;29.75;;;;;15.15;92.88;99868.56;6305925;22;47018;-89
2022/04/22 06:30:46;;;;;;;;;32.25;30.50;;;;;15.25;92.43;99879.28;6335605;22;54183;-91
2022/04/22 06:33:12;;;;;;;;;30.25;25.50;;;;;15.24;92.22;99877.47;6305817;22;45331;-90
2022/04/22 06:35:38;;;;;;;;;26.25;24.75;;;;;15.23;91.95;99878.38;6337089;22;45230;-90
2022/04/22 06:38:07;;;;;;;;;31.50;28.25;;;;;15.25;92.04;99889.84;6339603;22;45309;-90
2022/04/22 06:46:03;;;;;;;;;23.00;21.75;;;;;15.24;91.91;99881.03;6335792;22;45357;-90
2022/04/22 06:48:30;;;;;;;;;23.75;20.25;;;;;15.25;92.15;99877.53;6335313;22;45427;-92
2022/04/22 06:50:58;;;;;;;;;26.00;23.25;;;;;15.29;92.15;99878.44;6307523;22;45498;-90
2022/04/22 06:53:24;;;;;;;;;21.00;21.00;;;;;15.33;92.31;99871.44;6309159;22;45395;-91
2022/04/22 06:55:52;;;;;;;;;21.00;18.00;;;;;15.36;92.39;99890.00;6304207;22;45292;-91
2022/04/22 06:58:18;;;;;;;;;19.25;16.00;;;;;15.41;92.11;99880.34;6305499;22;48062;-90
2022/04/22 07:00:46;;;;;;;;;20.25;17.50;;;;;15.46;92.22;99875.97;6304170;22;45504;-92
2022/04/22 07:03:13;;;;;;;;;18.25;18.25;;;;;15.48;92.09;99871.59;6330814;22;45459;-89
2022/04/22 07:05:40;;;;;;;;;16.75;16.00;;;;;15.51;92.22;99878.69;6303946;22;45530;-90
2022/04/22 07:08:07;;;;;;;;;16.00;15.75;;;;;15.53;92.31;99869.91;6305824;22;48198;-90
2022/04/22 07:10:34;;;;;;;;;17.75;14.75;;;;;15.58;92.00;99879.63;6304799;22;45416;-91
2022/04/22 07:13:00;;;;;;;;;16.50;15.25;;;;;15.62;91.83;99882.31;6315654;22;45364;-89
2022/04/22 07:15:26;;;;;;;;;14.75;13.75;;;;;15.66;92.13;99874.44;6323493;22;45259;-90
2022/04/22 07:17:51;;;;;;;;;18.50;16.50;;;;;15.70;92.35;99865.63;6352231;22;45226;-90
2022/04/22 07:20:17;;;;;;;;;18.00;14.00;;;;;15.74;92.57;99856.88;6331221;22;44750;-89
2022/04/22 07:22:43;;;;;;;;;12.25;10.50;;;;;15.81;92.69;99858.72;6317211;22;45347;-90
2022/04/22 07:25:10;;;;;;;;;11.25;11.25;;;;;15.90;92.83;99863.19;6333268;22;45558;-91
2022/04/22 07:27:38;;;;;;;;;9.50;8.50;;;;;15.98;92.63;99866.78;6339420;22;46105;-90
2022/04/22 07:30:07;;;;;;;;;12.50;12.00;;;;;16.08;92.82;99861.63;6336468;22;45260;-89
2022/04/22 07:32:35;;;;;;;;;15.50;11.00;;;;;16.13;92.34;99869.59;6333155;22;45273;-89
2022/04/22 07:35:00;;;;;;;;;11.50;11.50;;;;;16.19;92.41;99869.63;6306869;22;45244;-89
2022/04/22 07:37:26;;;;;;;;;12.50;10.50;;;;;16.28;92.26;99867.06;6304819;22;46232;-89
2022/04/22 07:39:51;;;;;;;;;11.50;11.50;;;;;16.37;92.13;99873.28;6309115;22;45799;-92
2022/04/22 07:42:18;;;;;;;;;13.25;12.25;;;;;16.45;91.70;99870.69;6278628;22;45556;-88
2022/04/22 07:47:33;;;;;;;;;12.33;9.67;;;;;16.54;91.52;99870.78;6336307;22;45648;-94
2022/04/22 07:50:00;;;;;;;;;13.50;12.50;;;;;16.55;91.20;99866.34;6307005;22;45859;-93
2022/04/22 07:52:26;;;;;;;;;15.00;12.00;;;;;16.58;91.42;99871.66;6306485;22;45202;-93
2022/04/22 07:54:51;;;;;;;;;11.67;9.00;;;;;16.65;91.03;99868.19;6335711;22;45347;-94
2022/04/22 07:57:16;;;;;;;;;13.00;12.00;;;;;16.70;90.69;99871.75;6308668;22;48110;-93
2022/04/22 07:59:42;;;;;;;;;13.67;12.67;;;;;16.74;90.77;99867.34;6332916;22;45786;-93
2022/04/22 08:02:08;;;;;;;;;11.00;9.00;;;;;16.82;90.74;99870.06;6330611;22;45324;-93
2022/04/22 08:04:34;;;;;;;;;10.67;9.67;;;;;16.88;90.86;99874.50;6301657;22;45416;-90
2022/04/22 08:06:59;;;;;;;;;8.00;8.00;;;;;16.95;90.66;99874.53;6315740;22;45670;-90
2022/04/22 08:09:25;;;;;;;;;12.75;12.25;;;;;16.99;90.35;99875.44;6282181;22;46069;-92
2022/04/22 08:11:50;;;;;;;;;15.00;15.00;;;;;17.05;90.01;99878.13;6314279;22;53185;-92
2022/04/22 08:14:15;;;;;;;;;13.67;12.00;;;;;17.09;89.70;99879.00;6286290;22;45480;-90
2022/04/22 08:16:41;;;;;;;;;8.67;4.33;;;;;17.15;89.61;99875.50;6311402;22;47073;-89
2022/04/22 08:19:06;;;;;;;;;11.00;8.67;;;;;17.23;89.84;99884.41;6309828;22;45696;-88
2022/04/22 08:21:33;;;;;;;;;10.00;8.00;;;;;17.31;88.95;99890.63;6301516;22;45625;-90
2022/04/22 08:24:03;;;;;;;;;11.33;11.33;;;;;17.41;89.08;99877.41;6331866;22;45481;-89
2022/04/22 08:26:32;;;;;;;;;13.00;11.00;;;;;17.48;88.54;99875.63;6332672;22;46569;-88
2022/04/22 08:28:57;;;;;;;;;14.00;9.00;;;;;17.55;88.64;99879.22;6332522;22;45280;-89
2022/04/22 08:31:23;;;;;;;;;10.33;9.33;;;;;17.62;88.69;99870.38;6305089;22;45351;-90
2022/04/22 08:33:49;;;;;;;;;11.67;9.33;;;;;17.69;88.32;99880.13;6302025;22;48098;-90
2022/04/22 08:36:15;;;;;;;;;9.33;9.33;;;;;17.76;88.16;99873.03;6295545;22;48319;-90
2022/04/22 08:38:41;;;;;;;;;10.00;9.33;;;;;17.86;87.99;99874.81;6307153;22;45308;-90
2022/04/22 08:41:09;;;;;;;;;11.00;9.67;;;;;17.94;87.92;99868.63;6279962;22;45377;-91
2022/04/22 08:43:46;;;;;;;;;11.00;9.00;;;;;18.01;87.88;99865.13;6343514;22;45365;-90
2022/04/22 08:51:43;;;;;;;;;11.00;10.33;;;;;18.27;87.61;99856.25;6339224;22;45438;-89
2022/04/22 08:54:10;;;;;;;;;8.67;8.00;;;;;18.37;87.20;99861.59;6305000;22;45635;-91
2022/04/22 08:56:38;;;;;;;;;8.67;7.33;;;;;18.43;86.97;99851.81;6307633;22;48245;-91
2022/04/22 08:59:03;;;;;;;;;9.67;7.67;;;;;18.52;86.64;99852.72;6341392;22;45259;-90
2022/04/22 09:01:29;;;;;;;;;7.67;7.00;;;;;18.60;85.21;99869.53;6321565;22;45291;-92
2022/04/22 09:03:54;;;;;;;;;8.67;7.67;;;;;18.64;84.90;99868.63;6333914;22;45448;-93
2022/04/22 09:06:22;;;;;;;;;7.67;7.67;;;;;18.68;84.62;99868.63;6303910;22;61477;-90
2022/04/22 09:08:50;;;;;;;;;9.00;8.00;;;;;18.72;84.60;99857.97;6304282;22;46150;-93
2022/04/22 09:11:16;;;;;;;;;7.00;6.00;;;;;18.78;83.99;99866.81;6332089;22;45246;-92
2022/04/22 09:13:41;;;;;;;;;9.00;6.67;;;;;18.83;84.05;99870.34;6307995;22;45429;-87
2022/04/22 09:16:06;;;;;;;;;8.00;6.67;;;;;18.89;83.42;99854.34;6303362;22;48192;-87
2022/04/22 09:18:35;;;;;;;;;7.67;7.67;;;;;18.93;83.40;99873.84;6303394;22;45329;-89
2022/04/22 09:21:06;;;;;;;;;8.67;6.67;;;;;18.98;82.98;99864.09;6304012;22;45455;-91
2022/04/22 09:23:36;;;;;;;;;10.33;5.33;;;;;19.08;83.04;99867.59;6303757;22;45312;-90
2022/04/22 09:26:04;;;;;;;;;5.00;5.00;;;;;19.12;82.81;99860.50;6302711;22;46833;-91
2022/04/22 09:28:30;;;;;;;;;8.33;6.67;;;;;19.20;82.46;99859.59;6331899;22;45276;-90
2022/04/22 09:31:00;;;;;;;;;7.33;7.00;;;;;19.29;82.71;99852.47;6304423;22;45348;-90
2022/04/22 09:33:33;;;;;;;;;4.00;4.00;;;;;19.41;82.14;99862.13;6303405;22;45407;-89
2022/04/22 09:44:23;;;;;;;;;10.00;7.00;;;;;19.92;81.81;99855.59;6333321;22;45380;-94
2022/04/22 09:46:49;;;;;;;;;8.00;7.00;;;;;20.03;80.80;99859.94;6303211;22;47192;-90
2022/04/22 09:49:38;;;;;;;;;7.00;6.00;;;;;20.21;80.40;99857.16;6330261;22;45332;-91
2022/04/22 09:52:05;;;;;;;;;5.67;5.00;;;;;20.40;80.24;99843.69;6333892;22;45346;-90
2022/04/22 09:54:30;;;;;;;;;7.33;6.33;;;;;20.71;79.98;99857.56;6303573;22;45341;-93
2022/04/22 09:56:57;;;;;;;;;6.67;6.67;;;;;20.88;79.40;99860.91;6330392;22;47409;-89
2022/04/22 09:59:26;;;;;;;;;4.00;4.00;;;;;21.05;80.40;99861.66;6302638;22;45554;-89
2022/04/22 10:01:52;;;;;;;;;7.33;5.33;;;;;21.14;79.03;99860.66;6303699;22;45372;-93
2022/04/22 10:04:20;;;;;;;;;8.00;5.67;;;;;21.17;77.35;99861.50;6331472;22;45433;-89
2022/04/22 10:06:46;;;;;;;;;6.33;4.33;;;;;21.14;77.12;99860.66;6333275;22;45617;-94
2022/04/22 10:09:15;;;;;;;;;7.00;4.00;;;;;21.15;76.39;99849.09;6303514;22;45974;-87
2022/04/22 10:11:48;;;;;;;;;5.00;5.00;;;;;21.15;75.31;99841.97;6335392;22;45381;-90
2022/04/22 10:14:19;;;;;;;;;3.00;3.00;;;;;21.18;76.58;99844.56;6306058;22;45354;-87
2022/04/22 10:16:44;;;;;;;;;8.67;5.67;;;;;21.23;76.16;99862.31;6304354;22;48038;-89
2022/04/22 10:19:10;;;;;;;;;7.33;7.00;;;;;21.32;76.64;99848.84;6334302;22;45458;-87
2022/04/22 10:21:37;;;;;;;;;6.67;5.33;;;;;21.41;76.29;99842.50;6311562;22;45656;-89
2022/04/22 10:24:03;;;;;;;;;4.67;4.67;;;;;21.52;75.61;99839.66;6331020;22;45273;-90
2022/04/22 10:26:29;;;;;;;;;5.33;4.33;;;;;21.64;76.25;99844.84;6303505;22;47172;-88
2022/04/22 10:28:55;;;;;;;;;5.00;5.00;;;;;21.84;75.53;99840.97;6303622;22;45410;-87
2022/04/22 10:31:23;;;;;;;;;5.00;5.00;;;;;22.02;74.85;99844.28;6332637;22;45310;-89
2022/04/22 10:33:49;;;;;;;;;5.00;5.00;;;;;22.11;74.83;99835.22;6331815;22;45537;-86
2022/04/22 10:36:17;;;;;;;;;4.00;3.67;;;;;22.14;74.09;99828.91;6301377;22;47536;-87
2022/04/22 10:38:52;;;;;;;;;5.67;5.67;;;;;22.23;73.88;99827.88;6302707;22;45835;-87
2022/04/22 10:41:22;;;;;;;;;3.67;2.67;;;;;22.47;73.95;99828.34;6303414;22;45468;-87
2022/04/22 10:49:36;;;;;;;;;5.00;5.00;;;;;25.05;73.71;99815.97;6329851;22;45596;-86
2022/04/22 10:52:18;;;;;;;;;6.33;5.00;;;;;26.31;73.42;99823.59;6330012;22;45424;-88
2022/04/22 10:54:52;;;;;;;;;5.00;4.67;;;;;27.16;71.58;99828.63;6303568;22;45396;-91
2022/04/22 10:57:19;;;;;;;;;7.67;5.33;;;;;28.37;71.09;99833.66;6332812;22;45764;-89
2022/04/22 11:00:01;;;;;;;;;6.00;6.00;;;;;30.66;71.43;99829.06;6337119;22;45540;-89
2022/04/22 11:02:30;;;;;;;;;5.00;3.67;;;;;33.49;70.13;99823.34;6336085;22;45230;-86
2022/04/22 11:05:19;;;;;;;;;5.00;4.00;;;;;36.13;64.18;99828.50;6338297;22;45418;-87
2022/04/22 11:07:50;;;;;;;;;8.67;5.67;;;;;37.96;60.83;99834.88;6308090;22;47527;-88
2022/04/22 11:10:20;;;;;;;;;4.00;4.00;;;;;39.09;57.51;99823.25;6332311;22;45400;-88
2022/04/22 11:12:59;;;;;;;;;4.67;4.67;;;;;40.50;56.61;99820.38;6335751;22;45496;-88
2022/04/22 11:15:42;;;;;;;;;5.00;4.67;;;;;41.99;53.15;99819.47;6305539;22;45346;-88
2022/04/22 11:18:09;;;;;;;;;2.00;2.00;;;;;43.28;50.74;99821.72;6303611;22;47387;-88
2022/04/22 11:20:35;;;;;;;;;3.33;3.33;;;;;44.31;48.78;99826.13;6302112;22;45327;-86
2022/04/22 11:23:03;;;;;;;;;3.33;3.33;;;;;45.04;45.61;99836.31;6309658;22;45386;-88
2022/04/22 11:25:30;;;;;;;;;4.67;4.67;;;;;45.60;43.70;99831.63;6344141;22;44727;-90
2022/04/22 11:27:57;;;;;;;;;4.67;3.00;;;;;46.15;42.27;99839.00;6340486;22;47281;-89
2022/04/22 11:30:25;;;;;;;;;4.00;3.33;;;;;46.73;41.38;99826.41;6286528;22;45656;-89
2022/04/22 11:32:53;;;;;;;;;5.00;5.00;;;;;47.37;40.28;99819.50;6341044;22;45267;-88
2022/04/22 11:35:23;;;;;;;;;3.33;2.00;;;;;47.95;39.06;99820.50;6334090;22;45364;-89
2022/04/22 11:38:04;;;;;;;;;5.00;4.00;;;;;48.67;38.10;99821.44;6337315;22;46076;-89
2022/04/22 11:40:37;;;;;;;;;3.00;3.00;;;;;49.31;36.98;99821.25;6310303;22;45723;-90
2022/04/22 11:43:09;;;;;;;;;4.00;4.00;;;;;49.90;36.63;99815.09;6307508;22;45292;-90
2022/04/22 11:45:42;;;;;;;;;5.33;5.33;;;;;50.35;35.25;99821.06;6308170;22;45991;-87
2022/04/22 11:48:09;;;;;;;;;4.00;4.00;;;;;50.26;34.61;99818.50;6334979;22;45359;-86
2022/04/22 11:50:39;;;;;;;;;2.00;2.00;;;;;50.47;35.03;99813.75;6306737;22;45871;-90
2022/04/22 11:53:16;;;;;;;;;5.00;4.00;;;;;50.84;33.32;99817.94;6310653;22;45336;-88
2022/04/22 11:55:42;;;;;;;;;2.33;2.33;;;;;51.17;33.43;99819.72;6336671;22;45163;-89
2022/04/22 11:58:12;;;;;;;;;4.00;4.00;;;;;51.61;33.39;99810.63;6339707;22;45284;-89
2022/04/22 12:06:13;;;;;;;;;2.00;2.00;;;;;52.92;31.86;99813.81;6330814;22;45312;-87
2022/04/22 12:09:05;;;;;;;;;2.00;2.00;;;;;53.37;31.24;99806.09;6326558;22;46461;-88
2022/04/22 12:11:38;;;;;;;;;4.67;3.00;;;;;53.92;31.09;99806.91;6331492;22;45568;-88
2022/04/22 12:14:04;;;;;;;;;2.67;2.00;;;;;54.43;30.42;99804.69;6303170;22;45373;-87
2022/04/22 12:16:30;;;;;;;;;2.67;2.67;;;;;54.87;30.63;99795.78;6304190;22;45580;-88
2022/04/22 12:18:56;;;;;;;;;3.00;3.00;;;;;55.33;29.66;99802.53;6304695;22;47002;-88
2022/04/22 12:21:23;;;;;;;;;2.00;2.00;;;;;55.26;28.62;99800.72;6302562;22;45196;-90
2022/04/22 12:23:51;;;;;;;;;2.00;2.00;;;;;55.18;28.27;99804.78;6331599;22;45762;-90
2022/04/22 12:26:21;;;;;;;;;2.00;2.00;;;;;55.15;26.92;99796.88;6309016;22;45387;-89
2022/04/22 12:28:58;;;;;;;;;2.67;2.67;;;;;55.18;28.32;99789.91;6303683;22;47349;-89
2022/04/22 12:31:25;;;;;;;;;2.00;2.00;;;;;55.30;28.11;99801.09;6302303;22;45638;-88
2022/04/22 12:34:02;;;;;;;;;3.00;2.00;;;;;55.47;27.77;99788.97;6329904;22;45737;-90
2022/04/22 12:36:28;;;;;;;;;3.33;3.33;;;;;55.65;27.08;99792.66;6301210;22;45549;-88
2022/04/22 12:38:53;;;;;;;;;2.00;2.00;;;;;55.70;27.33;99785.16;6330354;22;46303;-90
2022/04/22 12:41:23;;;;;;;;;3.67;2.33;;;;;55.67;26.97;99788.47;6330061;22;45376;-90
2022/04/22 12:43:51;;;;;;;;;2.00;2.00;;;;;55.77;26.70;99790.63;6330782;22;45731;-89
2022/04/22 12:52:10;;;;;;;;;2.33;2.33;;;;;56.51;26.58;99755.88;6368247;22;45383;-90
2022/04/22 12:54:37;;;;;;;;;3.00;3.00;;;;;57.01;26.36;99769.94;6364032;22;45326;-89
2022/04/22 12:57:06;;;;;;;;;1.00;1.00;;;;;57.34;26.06;99761.56;6363862;22;45521;-90
2022/04/22 12:59:49;;;;;;;;;2.67;2.67;;;;;57.68;25.85;99773.66;6334096;22;48018;-89
2022/04/22 13:02:15;;;;;;;;;3.00;2.00;;;;;58.08;25.71;99765.69;6366779;22;45305;-89
2022/04/22 13:04:50;;;;;;;;;1.00;1.00;;;;;58.53;25.51;99764.50;6362284;22;45576;-89
2022/04/22 13:07:16;;;;;;;;;2.00;2.00;;;;;58.83;25.22;99762.91;6333861;22;45402;-89
2022/04/22 13:09:41;;;;;;;;;2.00;2.00;;;;;59.07;24.84;99762.34;6363120;22;45283;-88
2022/04/22 13:12:07;;;;;;;;;3.33;2.00;;;;;59.27;24.92;99763.50;6365677;22;45387;-90
2022/04/22 13:14:34;;;;;;;;;3.00;2.00;;;;;59.54;24.42;99755.88;6363624;22;45493;-88
2022/04/22 13:17:01;;;;;;;;;3.33;1.67;;;;;59.75;24.32;99753.00;6333812;22;45407;-89
2022/04/22 13:19:26;;;;;;;;;2.67;1.00;;;;;59.93;24.14;99760.00;6359673;22;45367;-89
2022/04/22 13:21:51;;;;;;;;;2.00;2.00;;;;;60.17;23.72;99750.88;6363506;22;45246;-90
2022/04/22 13:24:17;;;;;;;;;2.00;2.00;;;;;60.52;23.61;99744.50;6334537;22;45319;-89
2022/04/22 13:26:43;;;;;;;;;2.33;2.33;;;;;60.83;23.82;99749.94;6336636;22;45364;-88
2022/04/22 13:29:08;;;;;;;;;2.00;2.00;;;;;60.89;23.94;99739.41;6366396;22;47268;-89
2022/04/22 13:31:35;;;;;;;;;2.67;2.67;;;;;60.69;23.33;99749.78;6336251;22;45576;-89
2022/04/22 13:34:02;;;;;;;;;2.00;2.00;;;;;60.40;22.96;99742.84;6335771;22;45250;-89
2022/04/22 13:36:27;;;;;;;;;1.00;1.00;;;;;60.06;22.74;99735.94;6363779;22;45568;-91
2022/04/22 13:38:52;;;;;;;;;3.00;3.00;;;;;59.74;23.01;99745.63;6369572;22;45234;-89
2022/04/22 13:41:18;;;;;;;;;3.00;1.67;;;;;58.48;22.99;99746.38;6334356;22;54593;-89
2022/04/22 13:43:43;;;;;;;;;1.33;1.00;;;;;56.86;23.01;99736.81;6335218;22;45254;-88
2022/04/22 13:54:21;;;;;;;;;3.67;3.00;;;;;51.10;24.85;99723.91;6361770;22;45490;-91
2022/04/22 13:56:47;;;;;;;;;1.33;1.33;;;;;50.00;25.49;99711.47;6335097;22;45266;-90
2022/04/22 13:59:13;;;;;;;;;2.00;2.00;;;;;50.08;26.40;99716.00;6335502;22;47308;-92
2022/04/22 14:01:39;;;;;;;;;1.00;1.00;;;;;51.47;25.68;99703.66;6335530;22;45225;-91
2022/04/22 14:04:05;;;;;;;;;2.00;2.00;;;;;52.62;25.14;99709.97;6334915;22;45486;-92
2022/04/22 14:06:34;;;;;;;;;3.00;3.00;;;;;53.57;25.47;99716.06;6333573;22;45324;-93
2022/04/22 14:09:01;;;;;;;;;3.00;3.00;;;;;54.87;24.34;99711.50;6339243;22;47238;-93
2022/04/22 14:11:28;;;;;;;;;1.33;1.33;;;;;56.02;23.94;99710.53;6337376;22;45478;-93
2022/04/22 14:14:08;;;;;;;;;2.00;2.00;;;;;57.27;23.91;99705.38;6337583;22;45322;-95
2022/04/22 14:16:34;;;;;;;;;2.00;2.00;;;;;58.54;23.02;99695.59;6332797;22;45851;-93
2022/04/22 14:22:39;;;;;;;;;2.00;1.33;;;;;60.00;22.28;99712.41;6222477;22;45670;-95
2022/04/22 14:25:06;;;;;;;;;3.67;3.67;;;;;59.65;22.34;99717.91;6305229;22;45782;-92
2022/04/22 14:27:31;;;;;;;;;3.67;3.67;;;;;59.11;22.49;99714.56;6305524;22;45630;-95
2022/04/22 14:29:58;;;;;;;;;4.00;2.33;;;;;58.40;22.74;99712.22;6305081;22;47136;-95
2022/04/22 14:32:23;;;;;;;;;2.67;2.67;;;;;57.83;22.27;99699.53;6305377;22;45332;-91
2022/04/22 14:34:48;;;;;;;;;1.00;1.00;;;;;57.54;22.81;99697.09;6331791;22;45171;-92
2022/04/22 14:37:14;;;;;;;;;3.00;2.33;;;;;57.41;23.08;99699.28;6332515;22;45339;-92
2022/04/22 14:39:39;;;;;;;;;1.67;1.67;;;;;57.38;23.16;99700.66;6305845;22;48015;-92
2022/04/22 14:42:05;;;;;;;;;3.33;2.00;;;;;57.43;22.90;99694.22;6308317;22;45917;-92
2022/04/22 14:44:30;;;;;;;;;1.00;1.00;;;;;57.28;23.33;99697.78;6335116;22;45260;-93
2022/04/22 14:46:58;;;;;;;;;4.00;3.00;;;;;56.05;23.43;99687.50;6331790;22;44868;-90
2022/04/22 14:49:23;;;;;;;;;3.00;3.00;;;;;53.93;23.17;99688.00;6357004;22;45438;-91
2022/04/22 14:51:50;;;;;;;;;0.33;0.33;;;;;51.85;24.02;99689.78;6327060;22;45245;-90
2022/04/22 14:54:15;;;;;;;;;2.33;2.00;;;;;49.20;24.14;99702.97;6321131;22;45255;-91
2022/04/22 14:56:41;;;;;;;;;1.00;1.00;;;;;46.45;25.68;99693.94;6335715;22;45426;-92
2022/04/22 14:59:06;;;;;;;;;1.00;1.00;;;;;44.03;26.27;99693.84;6303983;22;47233;-91
2022/04/22 15:01:32;;;;;;;;;2.67;2.67;;;;;42.00;27.41;99688.97;6304787;22;45492;-90
2022/04/22 15:03:58;;;;;;;;;1.00;1.00;;;;;40.20;28.73;99683.06;6332546;22;45250;-91
2022/04/22 15:06:24;;;;;;;;;4.00;2.33;;;;;38.71;29.84;99676.78;6302543;22;45434;-91
2022/04/22 15:08:50;;;;;;;;;5.00;3.00;;;;;37.32;30.72;99690.53;6304968;22;47083;-92
2022/04/22 15:11:15;;;;;;;;;2.33;2.00;;;;;35.99;31.32;99697.53;6304098;22;45385;-90
2022/04/22 15:13:40;;;;;;;;;2.33;2.33;;;;;34.77;31.97;99690.28;6332830;22;45201;-89
2022/04/22 15:16:06;;;;;;;;;4.33;3.67;;;;;33.80;33.07;99681.69;6304534;22;45412;-91
2022/04/22 15:24:10;;;;;;;;;4.00;4.00;;;;;31.38;36.10;99688.72;6333073;22;45654;-92
2022/04/22 15:26:42;;;;;;;;;1.00;1.00;;;;;30.80;36.51;99692.00;6329847;22;45509;-93
2022/04/22 15:29:09;;;;;;;;;2.33;2.33;;;;;30.39;37.36;99694.22;6304068;22;46942;-92
2022/04/22 15:31:34;;;;;;;;;2.00;2.00;;;;;30.04;38.08;99692.47;6332847;22;45289;-91
2022/04/22 15:34:00;;;;;;;;;3.33;3.33;;;;;29.73;38.78;99692.28;6326150;22;45447;-88
2022/04/22 15:36:25;;;;;;;;;4.33;3.33;;;;;29.45;39.32;99689.16;6329147;22;45520;-89
2022/04/22 15:38:53;;;;;;;;;4.33;3.33;;;;;29.08;39.23;99696.34;6332066;22;46310;-88
2022/04/22 15:41:20;;;;;;;;;4.33;3.00;;;;;28.60;40.25;99702.25;6303211;22;45890;-89
2022/04/22 15:43:50;;;;;;;;;2.33;1.67;;;;;28.15;40.44;99688.94;6332834;22;45234;-89
2022/04/22 15:46:16;;;;;;;;;3.00;3.00;;;;;27.69;41.13;99687.31;6331888;22;45580;-89
2022/04/22 15:48:41;;;;;;;;;2.33;2.33;;;;;27.28;41.34;99689.91;6332098;22;45275;-89
2022/04/22 15:51:07;;;;;;;;;4.00;2.00;;;;;26.88;42.03;99689.69;6330851;22;45645;-89
2022/04/22 15:53:37;;;;;;;;;3.67;3.00;;;;;26.54;42.30;99687.38;6305039;22;45351;-89
2022/04/22 15:56:07;;;;;;;;;4.00;2.00;;;;;26.21;42.83;99691.28;6303033;22;45396;-92
2022/04/22 15:58:34;;;;;;;;;3.33;3.33;;;;;26.00;43.88;99692.97;6304664;22;47148;-90
2022/04/22 16:00:59;;;;;;;;;3.00;3.00;;;;;25.79;43.96;99690.09;6304662;22;45446;-89
2022/04/22 16:03:25;;;;;;;;;6.00;4.67;;;;;25.57;44.24;99682.75;6332233;22;45783;-89
2022/04/22 16:05:55;;;;;;;;;2.33;2.33;;;;;25.42;44.17;99685.03;6331081;22;45434;-90
2022/04/22 16:08:21;;;;;;;;;3.67;3.67;;;;;25.24;44.68;99682.97;6302616;22;48224;-89
2022/04/22 16:10:47;;;;;;;;;1.67;1.67;;;;;25.02;45.36;99673.84;6307136;22;45215;-90
2022/04/22 16:15:56;;;;;;;;;3.67;3.67;;;;;24.59;45.76;99668.84;6332395;22;45438;-89
2022/04/22 16:18:24;;;;;;;;;2.00;2.00;;;;;24.50;46.30;99669.13;6333240;22;45312;-89
2022/04/22 16:20:52;;;;;;;;;7.67;2.67;;;;;24.38;46.55;99665.88;6303538;22;45496;-93
2022/04/22 16:23:18;;;;;;;;;2.33;2.33;;;;;24.27;47.47;99673.38;6304025;22;45285;-90
2022/04/22 16:25:45;;;;;;;;;4.67;4.00;;;;;24.20;47.37;99676.19;6332220;22;45345;-90
2022/04/22 16:28:10;;;;;;;;;3.00;2.67;;;;;24.08;47.76;99674.75;6329525;22;47285;-89
2022/04/22 16:30:40;;;;;;;;;2.67;2.33;;;;;24.00;47.65;99663.34;6331053;22;45731;-88
2022/04/22 16:33:06;;;;;;;;;4.00;4.00;;;;;23.93;48.31;99670.69;6302215;22;45467;-89
2022/04/22 16:35:35;;;;;;;;;5.33;4.00;;;;;23.86;48.27;99666.44;6302456;22;45385;-90
2022/04/22 16:38:01;;;;;;;;;4.00;3.33;;;;;23.77;48.45;99664.88;6305243;22;47251;-90
2022/04/22 16:40:27;;;;;;;;;3.67;2.67;;;;;23.68;48.96;99671.38;6305735;22;45498;-89
2022/04/22 16:42:55;;;;;;;;;4.33;4.33;;;;;23.58;48.80;99664.50;6305794;22;45427;-89
2022/04/22 16:45:22;;;;;;;;;4.00;3.00;;;;;23.46;49.51;99671.91;6305191;22;45440;-91
2022/04/22 16:47:48;;;;;;;;;4.00;3.00;;;;;23.36;49.29;99663.22;6307227;22;47100;-89
2022/04/22 16:50:15;;;;;;;;;3.00;2.00;;;;;23.26;49.40;99667.94;6303067;22;45384;-90
2022/04/22 16:52:47;;;;;;;;;2.00;2.00;;;;;23.18;49.96;99676.16;6303472;22;45829;-90
2022/04/22 16:55:13;;;;;;;;;3.00;3.00;;;;;23.07;50.07;99664.81;6298032;22;45317;-89
2022/04/22 16:57:39;;;;;;;;;2.00;2.00;;;;;22.97;49.99;99659.69;6330997;22;45421;-90
2022/04/22 17:00:12;;;;;;;;;5.00;2.00;;;;;22.95;50.17;99666.00;6303998;22;45338;-92
2022/04/22 17:02:40;;;;;;;;;2.67;2.67;;;;;22.91;50.57;99665.19;6334285;22;45372;-91
2022/04/22 17:05:11;;;;;;;;;3.00;3.00;;;;;22.87;50.81;99664.38;6334479;22;45576;-89
2022/04/22 17:07:36;;;;;;;;;4.00;4.00;;;;;22.82;50.98;99666.28;6335682;22;46185;-88
2022/04/22 17:10:04;;;;;;;;;5.00;4.00;;;;;22.77;51.21;99660.16;6332629;22;45367;-89
2022/04/22 17:12:29;;;;;;;;;3.33;3.33;;;;;22.70;51.30;99658.56;6333284;22;45541;-90
2022/04/22 17:23:08;;;;;;;;;5.00;5.00;;;;;22.38;52.05;99661.88;6335063;22;45371;-90
2022/04/22 17:25:33;;;;;;;;;3.67;3.67;;;;;22.31;52.47;99657.56;6305952;22;45258;-88
2022/04/22 17:28:00;;;;;;;;;2.00;2.00;;;;;22.26;52.45;99665.69;6306247;22;48113;-89
2022/04/22 17:30:25;;;;;;;;;4.33;3.00;;;;;22.16;52.81;99664.13;6304709;22;45405;-89
2022/04/22 17:32:51;;;;;;;;;5.33;4.00;;;;;22.06;52.80;99661.59;6307557;22;45381;-89
2022/04/22 17:35:17;;;;;;;;;3.00;2.67;;;;;21.99;53.27;99659.97;6305422;22;45263;-90
2022/04/22 17:37:43;;;;;;;;;5.67;4.67;;;;;21.94;52.82;99670.75;6310476;22;47918;-91
2022/04/22 17:40:11;;;;;;;;;6.67;4.00;;;;;21.87;53.20;99658.44;6305117;22;45822;-93
2022/04/22 17:42:37;;;;;;;;;3.00;3.00;;;;;21.78;53.71;99659.44;6307502;22;45331;-92
2022/04/22 17:45:04;;;;;;;;;3.33;3.33;;;;;21.73;53.94;99664.88;6307179;22;45244;-90
2022/04/22 17:47:29;;;;;;;;;4.67;4.67;;;;;21.64;53.74;99662.38;6334569;22;45543;-92
2022/04/22 17:49:55;;;;;;;;;3.33;3.33;;;;;21.57;54.10;99660.75;6334734;22;45461;-94
2022/04/22 17:52:21;;;;;;;;;4.00;3.00;;;;;21.50;54.14;99662.63;6305604;22;45402;-90
2022/04/22 17:54:48;;;;;;;;;6.67;5.00;;;;;21.43;54.33;99659.19;6305651;22;45304;-89
2022/04/22 17:57:14;;;;;;;;;4.00;4.00;;;;;21.36;54.29;99653.09;6303856;22;47934;-90
2022/04/22 17:59:39;;;;;;;;;3.00;3.00;;;;;21.34;54.82;99654.88;6333371;22;45433;-89
2022/04/22 18:02:10;;;;;;;;;3.67;3.67;;;;;21.31;55.16;99657.63;6333202;22;45343;-89
2022/04/22 18:04:36;;;;;;;;;4.00;4.00;;;;;21.28;55.26;99655.88;6304837;22;45352;-89
2022/04/22 18:07:02;;;;;;;;;6.00;4.00;;;;;21.26;55.30;99657.66;6334090;22;45616;-88
2022/04/22 18:09:27;;;;;;;;;4.33;4.33;;;;;21.23;55.58;99651.53;6335756;22;45329;-89
2022/04/22 18:11:53;;;;;;;;;5.33;5.33;;;;;21.18;55.82;99649.78;6335592;22;45195;-87
2022/04/22 18:17:02;;;;;;;;;9.00;7.67;;;;;21.14;55.71;99648.09;6333613;22;45632;-91
2022/04/22 18:19:29;;;;;;;;;6.00;6.00;;;;;21.09;55.96;99655.28;6304690;22;46309;-91
2022/04/22 18:21:54;;;;;;;;;9.00;8.00;;;;;21.06;56.28;99656.22;6331880;22;45578;-88
2022/04/22 18:24:19;;;;;;;;;5.00;5.00;;;;;20.99;56.08;99649.19;6332634;22;45333;-89
2022/04/22 18:26:45;;;;;;;;;4.00;4.00;;;;;20.93;56.20;99658.16;6333351;22;66260;-90
2022/04/22 18:29:10;;;;;;;;;5.00;5.00;;;;;20.90;56.29;99663.53;6305155;22;45359;-89
2022/04/22 18:31:37;;;;;;;;;5.00;5.00;;;;;20.86;56.71;99661.81;6335005;22;45274;-91
2022/04/22 18:34:03;;;;;;;;;5.33;5.33;;;;;20.82;56.67;99657.44;6349841;22;45439;-89
2022/04/22 18:36:29;;;;;;;;;8.00;6.67;;;;;20.75;57.00;99661.97;6355065;22;45665;-89
2022/04/22 18:38:55;;;;;;;;;6.00;6.00;;;;;20.71;57.78;99661.16;6359274;22;45159;-88
2022/04/22 18:41:29;;;;;;;;;4.67;4.33;;;;;20.64;57.79;99655.00;6358690;22;44677;-89
2022/04/22 18:43:56;;;;;;;;;8.33;6.67;;;;;20.58;58.13;99656.91;6322728;22;45625;-89
2022/04/22 18:46:25;;;;;;;;;5.00;4.67;;;;;20.51;58.21;99654.28;6306090;22;46992;-90
2022/04/22 18:48:50;;;;;;;;;6.00;6.00;;;;;20.48;58.38;99657.03;6332563;22;45340;-89
2022/04/22 18:51:15;;;;;;;;;6.67;6.67;;;;;20.43;58.48;99665.09;6332265;22;45427;-89
2022/04/22 18:53:41;;;;;;;;;7.33;6.67;;;;;20.36;59.37;99660.72;6332255;22;53837;-89
2022/04/22 18:56:06;;;;;;;;;9.33;8.33;;;;;20.32;59.31;99670.53;6303879;22;46409;-89
2022/04/22 18:58:32;;;;;;;;;6.00;5.67;;;;;20.26;59.09;99659.94;6332904;22;45638;-89
2022/04/22 19:00:57;;;;;;;;;7.33;7.00;;;;;20.21;59.26;99662.69;6304181;22;45373;-90
2022/04/22 19:03:22;;;;;;;;;5.00;5.00;;;;;20.19;59.68;99668.94;6303773;22;45372;-90
2022/04/22 19:05:49;;;;;;;;;7.67;6.67;;;;;20.12;60.26;99664.56;6330964;22;56260;-91